createdAt,value
2022-10-04T00:00:41.772Z,9.50
2022-10-04T00:03:26.005Z,9.50
2022-10-04T00:06:02.589Z,9.60
2022-10-04T00:08:43.583Z,9.80
2022-10-04T00:11:26.633Z,9.90
2022-10-04T00:14:00.429Z,9.90
2022-10-04T00:16:34.977Z,9.90
2022-10-04T00:19:40.753Z,9.90
2022-10-04T00:22:29.308Z,9.90
2022-10-04T00:25:24.430Z,9.90
2022-10-04T00:28:44.329Z,10.00
2022-10-04T00:31:22.619Z,10.00
2022-10-04T00:33:59.949Z,10.00
2022-10-04T00:36:55.754Z,9.90
2022-10-04T00:39:45.613Z,9.90
2022-10-04T00:42:40.191Z,9.90
2022-10-04T00:45:22.031Z,10.00
2022-10-04T00:48:33.082Z,10.00
2022-10-04T00:51:13.732Z,10.00
2022-10-04T00:54:07.379Z,9.90
2022-10-04T00:56:47.868Z,9.90
2022-10-04T00:59:33.043Z,9.90
2022-10-04T01:02:09.349Z,9.90
2022-10-04T01:04:48.783Z,9.90
2022-10-04T01:07:25.638Z,9.90
2022-10-04T01:10:04.512Z,9.80
2022-10-04T01:12:50.298Z,9.80
2022-10-04T01:15:34.133Z,9.70
2022-10-04T01:18:17.704Z,9.80
2022-10-04T01:21:00.084Z,9.80
2022-10-04T01:23:50.720Z,9.70
2022-10-04T01:26:43.474Z,9.70
2022-10-04T01:29:18.427Z,9.70
2022-10-04T01:31:51.546Z,9.70
2022-10-04T01:34:24.707Z,9.70
2022-10-04T01:36:59.202Z,9.70
2022-10-04T01:39:32.464Z,9.60
2022-10-04T01:42:09.683Z,9.50
2022-10-04T01:44:50.344Z,9.50
2022-10-04T01:47:27.294Z,9.60
2022-10-04T01:50:00.159Z,9.60
2022-10-04T01:52:38.562Z,9.60
2022-10-04T01:55:17.343Z,9.60
2022-10-04T01:57:58.145Z,9.60
2022-10-04T02:00:28.678Z,9.60
2022-10-04T02:03:11.751Z,9.60
2022-10-04T02:05:47.674Z,9.50
2022-10-04T02:08:37.340Z,9.50
2022-10-04T02:11:10.611Z,9.50
2022-10-04T02:13:46.445Z,9.50
2022-10-04T02:16:16.978Z,9.50
2022-10-04T02:18:49.204Z,9.50
2022-10-04T02:21:21.812Z,9.60
2022-10-04T02:23:54.019Z,9.50
2022-10-04T02:26:34.230Z,9.50
2022-10-04T02:29:11.591Z,9.50
2022-10-04T02:31:55.243Z,9.40
2022-10-04T02:34:26.192Z,9.30
2022-10-04T02:36:56.715Z,9.30
2022-10-04T02:39:34.805Z,9.30
2022-10-04T02:42:25.748Z,9.30
2022-10-04T02:45:08.320Z,9.20
2022-10-04T02:47:50.052Z,9.10
2022-10-04T02:50:33.646Z,9.10
2022-10-04T02:53:17.661Z,9.10
2022-10-04T02:55:48.553Z,9.00
2022-10-04T02:58:26.926Z,9.00
2022-10-04T03:01:04.924Z,9.00
2022-10-04T03:03:38.320Z,9.10
2022-10-04T03:06:16.009Z,9.10
2022-10-04T03:08:54.806Z,9.10
2022-10-04T03:11:34.316Z,9.10
2022-10-04T03:14:16.436Z,9.10
2022-10-04T03:16:50.501Z,9.20
2022-10-04T03:19:22.557Z,9.10
2022-10-04T03:21:58.635Z,9.10
2022-10-04T03:24:34.808Z,9.10
2022-10-04T03:27:12.847Z,9.20
2022-10-04T03:29:50.457Z,9.20
2022-10-04T03:32:26.033Z,9.20
2022-10-04T03:35:01.149Z,9.30
2022-10-04T03:37:37.505Z,9.30
2022-10-04T03:40:21.464Z,9.30
2022-10-04T03:42:52.740Z,9.30
2022-10-04T03:45:28.497Z,9.20
2022-10-04T03:48:13.019Z,9.20
2022-10-04T03:50:49.908Z,9.20
2022-10-04T03:53:35.402Z,9.20
2022-10-04T03:56:14.269Z,9.20
2022-10-04T03:58:44.974Z,9.20
2022-10-04T04:01:40.727Z,9.10
2022-10-04T04:04:27.451Z,9.20
2022-10-04T04:07:08.330Z,9.30
2022-10-04T04:09:53.295Z,9.30
2022-10-04T04:12:34.274Z,9.20
2022-10-04T04:15:07.958Z,9.20
2022-10-04T04:17:45.372Z,9.20
2022-10-04T04:20:30.052Z,9.20
2022-10-04T04:23:06.581Z,9.10
2022-10-04T04:25:43.285Z,9.10
2022-10-04T04:28:32.874Z,9.10
2022-10-04T04:31:10.054Z,9.20
2022-10-04T04:33:50.287Z,9.20
2022-10-04T04:36:20.495Z,9.20
2022-10-04T04:39:06.072Z,9.10
2022-10-04T04:41:45.789Z,9.20
2022-10-04T04:44:23.785Z,9.20
2022-10-04T04:47:00.545Z,9.20
2022-10-04T04:49:42.889Z,9.20
2022-10-04T04:52:20.738Z,9.20
2022-10-04T04:54:51.487Z,9.20
2022-10-04T04:57:24.184Z,9.10
2022-10-04T05:00:01.744Z,9.10
2022-10-04T05:02:58.332Z,9.10
2022-10-04T05:05:36.269Z,9.10
2022-10-04T05:08:27.714Z,9.10
2022-10-04T05:11:08.649Z,9.10
2022-10-04T05:13:46.682Z,9.10
2022-10-04T05:16:22.674Z,9.10
2022-10-04T05:19:03.951Z,9.10
2022-10-04T05:21:42.716Z,9.00
2022-10-04T05:24:20.715Z,9.10
2022-10-04T05:26:56.821Z,9.10
2022-10-04T05:29:32.988Z,9.10
2022-10-04T05:32:32.767Z,9.10
2022-10-04T05:35:04.920Z,9.10
2022-10-04T05:37:56.424Z,9.10
2022-10-04T05:40:46.908Z,9.10
2022-10-04T05:43:28.967Z,9.00
2022-10-04T05:46:20.764Z,9.00
2022-10-04T05:48:57.327Z,9.00
2022-10-04T05:51:37.713Z,9.00
2022-10-04T05:54:16.364Z,9.00
2022-10-04T05:57:25.337Z,9.00
2022-10-04T06:00:15.867Z,9.00
2022-10-04T06:03:33.832Z,9.00
2022-10-04T06:06:14.712Z,9.00
2022-10-04T06:09:03.842Z,9.20
2022-10-04T06:12:02.431Z,9.30
2022-10-04T06:15:08.520Z,9.50
2022-10-04T06:18:14.979Z,9.50
2022-10-04T06:21:21.925Z,9.50
2022-10-04T06:24:03.583Z,9.50
2022-10-04T06:26:59.362Z,9.60
2022-10-04T06:29:39.806Z,9.70
2022-10-04T06:32:38.863Z,9.80
2022-10-04T06:35:45.326Z,9.80
2022-10-04T06:38:52.912Z,9.90
2022-10-04T06:41:53.379Z,10.00
2022-10-04T06:45:05.312Z,10.10
2022-10-04T06:48:04.864Z,10.30
2022-10-04T06:50:58.863Z,10.20
2022-10-04T06:53:44.093Z,10.40
2022-10-04T06:56:36.770Z,10.50
2022-10-04T06:59:36.305Z,10.60
2022-10-04T07:02:17.654Z,10.80
2022-10-04T07:05:07.966Z,11.20
2022-10-04T07:07:47.725Z,11.50
2022-10-04T07:10:40.331Z,11.90
2022-10-04T07:13:43.088Z,12.00
2022-10-04T07:16:34.834Z,12.20
2022-10-04T07:19:25.048Z,12.40
2022-10-04T07:22:12.291Z,12.70
2022-10-04T07:25:03.168Z,12.60
2022-10-04T07:27:39.873Z,12.70
2022-10-04T07:30:14.741Z,13.00
2022-10-04T07:32:53.188Z,13.30
2022-10-04T07:35:37.831Z,13.90
2022-10-04T07:38:22.352Z,15.70
2022-10-04T07:41:12.135Z,17.20
2022-10-04T07:43:56.214Z,18.60
2022-10-04T07:46:46.856Z,19.50
2022-10-04T07:49:25.684Z,20.40
2022-10-04T07:52:25.727Z,21.20
2022-10-04T07:55:15.772Z,21.00
2022-10-04T07:58:07.253Z,21.60
2022-10-04T08:00:53.579Z,21.90
2022-10-04T08:03:53.293Z,21.30
2022-10-04T08:06:41.087Z,20.30
2022-10-04T08:09:42.927Z,19.40
2022-10-04T08:12:28.511Z,18.50
2022-10-04T08:15:31.881Z,17.30
2022-10-04T08:18:23.653Z,16.90
2022-10-04T08:21:00.933Z,16.60
2022-10-04T08:24:09.989Z,16.40
2022-10-04T08:27:16.473Z,16.30
2022-10-04T08:30:03.341Z,16.30
2022-10-04T08:32:54.932Z,17.10
2022-10-04T08:35:41.569Z,18.30
2022-10-04T08:38:45.177Z,18.90
2022-10-04T08:42:04.753Z,19.60
2022-10-04T08:45:24.374Z,20.30
2022-10-04T08:48:50.777Z,21.10
2022-10-04T08:52:09.255Z,22.10
2022-10-04T08:55:38.368Z,23.10
2022-10-04T08:58:23.773Z,23.30
2022-10-04T09:01:36.693Z,24.10
2022-10-04T09:04:55.309Z,23.80
2022-10-04T09:08:09.586Z,23.70
2022-10-04T09:11:25.511Z,23.60
2022-10-04T09:14:32.888Z,24.20
2022-10-04T09:17:23.093Z,25.10
2022-10-04T09:20:39.399Z,26.00
2022-10-04T09:23:34.241Z,26.50
2022-10-04T09:26:26.758Z,26.10
2022-10-04T09:29:24.618Z,26.60
2022-10-04T09:32:39.115Z,27.30
2022-10-04T09:36:08.359Z,28.20
2022-10-04T09:39:29.990Z,28.60
2022-10-04T09:42:33.956Z,27.30
2022-10-04T09:45:39.711Z,25.90
2022-10-04T09:48:44.991Z,24.80
2022-10-04T09:51:43.252Z,24.40
2022-10-04T09:54:57.331Z,24.90
2022-10-04T09:57:48.404Z,25.60
2022-10-04T10:00:25.185Z,25.00
2022-10-04T10:03:41.972Z,25.40
2022-10-04T10:06:51.883Z,24.50
2022-10-04T10:09:51.736Z,24.50
2022-10-04T10:13:05.879Z,25.00
2022-10-04T10:15:59.535Z,25.40
2022-10-04T10:18:52.052Z,25.90
2022-10-04T10:21:58.096Z,26.60
2022-10-04T10:25:03.064Z,26.20
2022-10-04T10:28:41.420Z,26.50
2022-10-04T10:31:50.994Z,25.10
2022-10-04T10:34:56.149Z,25.50
2022-10-04T10:38:04.589Z,26.10
2022-10-04T10:41:08.457Z,25.10
2022-10-04T10:44:04.113Z,24.70
2022-10-04T10:47:14.565Z,24.10
2022-10-04T10:50:25.273Z,23.40
2022-10-04T10:53:52.183Z,23.30
2022-10-04T10:56:45.987Z,23.80
2022-10-04T11:00:05.331Z,23.60
2022-10-04T11:03:26.269Z,24.00
2022-10-04T11:06:35.724Z,24.40
2022-10-04T11:09:36.715Z,24.20
2022-10-04T11:12:51.895Z,24.70
2022-10-04T11:16:01.885Z,24.40
2022-10-04T11:19:08.985Z,24.60
2022-10-04T11:22:16.800Z,25.20
2022-10-04T11:25:29.777Z,24.80
2022-10-04T11:28:17.279Z,23.90
2022-10-04T11:31:41.140Z,23.90
2022-10-04T11:35:12.633Z,23.90
2022-10-04T11:38:14.768Z,23.70
2022-10-04T11:41:16.766Z,23.50
2022-10-04T11:44:32.295Z,23.20
2022-10-04T11:47:15.047Z,22.60
2022-10-04T11:50:11.673Z,22.40
2022-10-04T11:53:29.244Z,22.10
2022-10-04T11:56:24.048Z,22.00
2022-10-04T11:59:34.152Z,22.00
2022-10-04T12:02:57.815Z,21.50
2022-10-04T12:06:03.845Z,21.20
2022-10-04T12:08:53.188Z,21.00
2022-10-04T12:12:48.336Z,20.80
2022-10-04T12:15:49.654Z,20.90
2022-10-04T12:19:21.613Z,21.00
2022-10-04T12:22:08.916Z,21.10
2022-10-04T12:25:56.918Z,21.10
2022-10-04T12:29:12.880Z,20.80
2022-10-04T12:31:53.921Z,21.10
2022-10-04T12:34:38.426Z,21.50
2022-10-04T12:37:27.753Z,21.80
2022-10-04T12:40:40.327Z,21.90
2022-10-04T12:43:24.054Z,21.80
2022-10-04T12:46:15.381Z,21.70
2022-10-04T12:49:09.021Z,21.70
2022-10-04T12:51:58.460Z,21.60
2022-10-04T12:54:45.241Z,21.40
2022-10-04T12:57:50.186Z,21.40
2022-10-04T13:00:24.975Z,21.40
2022-10-04T13:03:34.755Z,21.50
2022-10-04T13:06:24.055Z,21.60
2022-10-04T13:09:18.040Z,21.60
2022-10-04T13:12:19.784Z,21.60
2022-10-04T13:15:23.730Z,21.70
2022-10-04T13:18:06.827Z,21.80
2022-10-04T13:20:57.722Z,21.70
2022-10-04T13:23:51.617Z,21.40
2022-10-04T13:26:46.212Z,21.30
2022-10-04T13:29:29.897Z,21.30
2022-10-04T13:32:13.733Z,21.40
2022-10-04T13:34:55.816Z,21.40
2022-10-04T13:37:42.172Z,21.10
2022-10-04T13:40:43.941Z,21.10
2022-10-04T13:44:03.578Z,21.20
2022-10-04T13:46:46.122Z,21.30
2022-10-04T13:49:48.416Z,21.30
2022-10-04T13:52:51.165Z,21.30
2022-10-04T13:55:50.829Z,21.20
2022-10-04T13:58:57.928Z,21.20
2022-10-04T14:02:21.257Z,21.30
2022-10-04T14:05:51.717Z,21.40
2022-10-04T14:09:17.427Z,21.50
2022-10-04T14:12:38.621Z,21.50
2022-10-04T14:15:52.644Z,21.60
2022-10-04T14:19:18.754Z,21.60
2022-10-04T14:22:46.841Z,21.60
2022-10-04T14:26:04.507Z,21.60
2022-10-04T14:29:21.384Z,21.70
2022-10-04T14:32:28.627Z,21.60
2022-10-04T14:35:05.906Z,21.60
2022-10-04T14:38:27.096Z,21.50
2022-10-04T14:41:46.646Z,21.40
2022-10-04T14:45:16.555Z,21.40
2022-10-04T14:48:27.080Z,21.40
2022-10-04T14:51:40.060Z,21.40
2022-10-04T14:54:29.113Z,21.40
2022-10-04T14:57:06.928Z,21.30
2022-10-04T15:00:13.352Z,21.20
2022-10-04T15:03:31.959Z,21.20
2022-10-04T15:06:29.267Z,21.10
2022-10-04T15:09:40.569Z,21.10
2022-10-04T15:13:10.074Z,21.00
2022-10-04T15:16:20.905Z,21.00
2022-10-04T15:19:00.429Z,21.00
2022-10-04T15:21:46.740Z,20.80
2022-10-04T15:24:29.231Z,20.70
2022-10-04T15:27:54.422Z,20.50
2022-10-04T15:30:37.380Z,20.40
2022-10-04T15:33:32.146Z,20.30
2022-10-04T15:36:42.722Z,20.20
2022-10-04T15:40:05.630Z,20.10
2022-10-04T15:42:42.101Z,20.10
2022-10-04T15:46:03.513Z,20.00
2022-10-04T15:49:15.751Z,19.80
2022-10-04T15:52:09.812Z,19.70
2022-10-04T15:55:13.530Z,19.60
2022-10-04T15:58:39.741Z,19.50
2022-10-04T16:01:55.205Z,19.40
2022-10-04T16:04:47.189Z,19.30
2022-10-04T16:08:06.155Z,19.20
2022-10-04T16:11:06.896Z,19.00
2022-10-04T16:14:16.195Z,18.90
2022-10-04T16:17:28.638Z,18.80
2022-10-04T16:20:33.261Z,18.70
2022-10-04T16:23:43.910Z,18.60
2022-10-04T16:26:18.469Z,18.60
2022-10-04T16:29:26.841Z,18.50
2022-10-04T16:32:05.265Z,18.40
2022-10-04T16:34:58.418Z,18.30
2022-10-04T16:37:50.061Z,18.30
2022-10-04T16:40:40.006Z,18.30
2022-10-04T16:43:27.963Z,18.20
2022-10-04T16:46:25.255Z,18.00
2022-10-04T16:49:00.131Z,17.90
2022-10-04T16:51:54.214Z,17.80
2022-10-04T16:55:01.028Z,17.80
2022-10-04T16:57:32.000Z,17.70
2022-10-04T17:00:23.171Z,17.50
2022-10-04T17:03:20.264Z,17.40
2022-10-04T17:06:16.060Z,17.20
2022-10-04T17:09:17.751Z,17.10
2022-10-04T17:12:06.152Z,17.00
2022-10-04T17:15:33.734Z,16.90
2022-10-04T17:18:37.248Z,16.70
2022-10-04T17:21:37.118Z,16.50
2022-10-04T17:24:34.035Z,16.50
2022-10-04T17:27:28.946Z,16.40
2022-10-04T17:30:18.491Z,16.30
2022-10-04T17:33:19.525Z,16.30
2022-10-04T17:36:21.185Z,16.20
2022-10-04T17:39:10.214Z,16.10
2022-10-04T17:42:18.520Z,16.00
2022-10-04T17:45:17.131Z,16.00
2022-10-04T17:48:15.492Z,15.80
2022-10-04T17:51:13.860Z,15.80
2022-10-04T17:54:02.721Z,15.70
2022-10-04T17:56:42.232Z,15.60
2022-10-04T17:59:19.488Z,15.50
2022-10-04T18:02:03.310Z,15.40
2022-10-04T18:04:43.603Z,15.40
2022-10-04T18:07:27.129Z,15.30
2022-10-04T18:10:24.568Z,15.30
2022-10-04T18:13:04.829Z,15.30
2022-10-04T18:15:44.916Z,15.30
2022-10-04T18:18:21.059Z,15.30
2022-10-04T18:21:10.143Z,15.30
2022-10-04T18:23:56.522Z,15.20
2022-10-04T18:26:30.382Z,15.10
2022-10-04T18:29:04.090Z,15.10
2022-10-04T18:31:43.930Z,15.00
2022-10-04T18:34:32.164Z,15.00
2022-10-04T18:37:22.802Z,15.00
2022-10-04T18:40:05.260Z,14.90
2022-10-04T18:42:52.181Z,14.90
2022-10-04T18:45:26.817Z,14.90
2022-10-04T18:47:59.010Z,14.80
2022-10-04T18:50:47.301Z,14.70
2022-10-04T18:53:45.246Z,14.70
2022-10-04T18:56:17.935Z,14.60
2022-10-04T18:59:29.697Z,14.60
2022-10-04T19:02:14.878Z,14.60
2022-10-04T19:04:54.844Z,14.50
2022-10-04T19:07:48.056Z,14.50
2022-10-04T19:10:35.805Z,14.40
2022-10-04T19:13:36.063Z,14.40
2022-10-04T19:16:29.391Z,14.40
2022-10-04T19:19:12.989Z,14.40
2022-10-04T19:21:59.241Z,14.30
2022-10-04T19:25:02.037Z,14.30
2022-10-04T19:27:40.615Z,14.20
2022-10-04T19:30:23.309Z,14.30
2022-10-04T19:33:13.921Z,14.30
2022-10-04T19:36:08.980Z,14.30
2022-10-04T19:39:12.470Z,14.30
2022-10-04T19:41:54.742Z,14.20
2022-10-04T19:45:01.506Z,14.20
2022-10-04T19:47:47.159Z,14.10
2022-10-04T19:50:32.903Z,14.10
2022-10-04T19:53:12.877Z,13.90
2022-10-04T19:55:52.059Z,13.90
2022-10-04T19:58:44.427Z,13.90
2022-10-04T20:01:16.027Z,13.90
2022-10-04T20:04:11.232Z,13.80
2022-10-04T20:06:47.520Z,13.80
2022-10-04T20:09:35.712Z,13.80
2022-10-04T20:12:07.254Z,13.70
2022-10-04T20:14:50.538Z,13.70
2022-10-04T20:17:35.529Z,13.70
2022-10-04T20:20:08.417Z,13.80
2022-10-04T20:22:59.312Z,13.70
2022-10-04T20:26:02.552Z,13.70
2022-10-04T20:28:53.355Z,13.70
2022-10-04T20:31:56.603Z,13.70
2022-10-04T20:34:36.555Z,13.60
2022-10-04T20:37:10.990Z,13.60
2022-10-04T20:40:02.182Z,13.50
2022-10-04T20:42:40.451Z,13.50
2022-10-04T20:45:31.648Z,13.50
2022-10-04T20:48:02.028Z,13.50
2022-10-04T20:50:42.364Z,13.40
2022-10-04T20:53:23.874Z,13.30
2022-10-04T20:56:19.079Z,13.20
2022-10-04T20:58:56.540Z,13.00
2022-10-04T21:01:44.622Z,12.90
2022-10-04T21:04:18.153Z,12.90
2022-10-04T21:06:54.786Z,12.90
2022-10-04T21:09:29.907Z,12.80
2022-10-04T21:12:05.011Z,12.70
2022-10-04T21:14:37.282Z,12.60
2022-10-04T21:17:43.732Z,12.60
2022-10-04T21:20:37.470Z,12.50
2022-10-04T21:23:13.208Z,12.40
2022-10-04T21:25:50.263Z,12.30
2022-10-04T21:28:40.753Z,12.20
2022-10-04T21:31:10.952Z,12.10
2022-10-04T21:33:41.337Z,12.00
2022-10-04T21:36:13.858Z,11.90
2022-10-04T21:38:44.381Z,11.90
2022-10-04T21:41:17.060Z,11.90
2022-10-04T21:43:47.148Z,11.90
2022-10-04T21:46:20.922Z,11.90
2022-10-04T21:48:53.023Z,11.80
2022-10-04T21:51:26.115Z,11.70
2022-10-04T21:53:56.359Z,11.70
2022-10-04T21:56:31.066Z,11.60
2022-10-04T21:59:01.749Z,11.60
2022-10-04T22:01:31.948Z,11.70
2022-10-04T22:04:05.091Z,11.60
2022-10-04T22:06:35.258Z,11.60
2022-10-04T22:09:05.456Z,11.60
2022-10-04T22:11:43.840Z,11.50
2022-10-04T22:14:14.144Z,11.60
2022-10-04T22:16:44.627Z,11.60
2022-10-04T22:19:14.995Z,11.70
2022-10-04T22:21:45.047Z,11.80
2022-10-04T22:24:21.295Z,11.80
2022-10-04T22:27:00.387Z,11.80
2022-10-04T22:29:42.767Z,11.80
2022-10-04T22:32:21.045Z,11.80
2022-10-04T22:34:51.453Z,11.80
2022-10-04T22:37:27.263Z,11.70
2022-10-04T22:39:59.633Z,11.60
2022-10-04T22:42:36.976Z,11.60
2022-10-04T22:45:18.555Z,11.50
2022-10-04T22:47:48.687Z,11.50
2022-10-04T22:50:32.046Z,11.60
2022-10-04T22:53:10.357Z,11.60
2022-10-04T22:55:43.970Z,11.60
2022-10-04T22:58:21.055Z,11.80
2022-10-04T23:00:54.136Z,11.90
2022-10-04T23:03:31.647Z,12.00
2022-10-04T23:06:12.671Z,12.10
2022-10-04T23:08:43.055Z,12.10
2022-10-04T23:11:14.822Z,12.10
2022-10-04T23:13:49.865Z,12.00
2022-10-04T23:16:25.638Z,12.00
2022-10-04T23:19:05.009Z,11.90
2022-10-04T23:21:39.748Z,11.90
2022-10-04T23:24:18.119Z,12.00
2022-10-04T23:26:59.545Z,11.90
2022-10-04T23:29:45.454Z,12.00
2022-10-04T23:32:18.725Z,12.00
2022-10-04T23:34:56.392Z,12.00
2022-10-04T23:37:32.215Z,12.00
2022-10-04T23:40:02.480Z,11.90
2022-10-04T23:42:36.998Z,11.80
2022-10-04T23:45:21.866Z,11.70
2022-10-04T23:47:56.039Z,11.70
2022-10-04T23:50:40.292Z,11.60
2022-10-04T23:53:28.264Z,11.50
2022-10-04T23:56:09.790Z,11.40
2022-10-04T23:58:44.436Z,11.40
